sensor_id;sensor_type;location;lat;lon;timestamp;P1;durP1;ratioP1;P2;durP2;ratioP2
65863;SDS011;52639;51.180;20.460;2023-02-01T00:00:30;10.20;;;5.70;;
65863;SDS011;52639;51.180;20.460;2023-02-01T00:04:57;6.28;;;3.17;;
65863;SDS011;52639;51.180;20.460;2023-02-01T00:09:00;9.38;;;4.97;;
65863;SDS011;52639;51.180;20.460;2023-02-01T00:13:04;11.07;;;5.82;;
65863;SDS011;52639;51.180;20.460;2023-02-01T00:17:07;9.60;;;5.78;;
65863;SDS011;52639;51.180;20.460;2023-02-01T00:21:12;8.55;;;5.20;;
65863;SDS011;52639;51.180;20.460;2023-02-01T00:25:16;11.88;;;5.07;;
65863;SDS011;52639;51.180;20.460;2023-02-01T00:29:21;11.35;;;6.20;;
65863;SDS011;52639;51.180;20.460;2023-02-01T00:33:24;10.75;;;4.68;;
65863;SDS011;52639;51.180;20.460;2023-02-01T00:37:29;11.55;;;5.32;;
65863;SDS011;52639;51.180;20.460;2023-02-01T00:41:33;6.70;;;3.95;;
65863;SDS011;52639;51.180;20.460;2023-02-01T00:45:36;7.47;;;3.75;;
65863;SDS011;52639;51.180;20.460;2023-02-01T00:49:40;5.35;;;3.40;;
65863;SDS011;52639;51.180;20.460;2023-02-01T00:53:44;4.72;;;3.20;;
65863;SDS011;52639;51.180;20.460;2023-02-01T00:57:47;4.72;;;2.72;;
65863;SDS011;52639;51.180;20.460;2023-02-01T01:01:50;2.10;;;1.75;;
65863;SDS011;52639;51.180;20.460;2023-02-01T01:05:56;4.80;;;3.28;;
65863;SDS011;52639;51.180;20.460;2023-02-01T01:10:00;4.90;;;3.35;;
65863;SDS011;52639;51.180;20.460;2023-02-01T01:14:04;5.97;;;2.80;;
65863;SDS011;52639;51.180;20.460;2023-02-01T01:18:08;3.17;;;2.10;;
65863;SDS011;52639;51.180;20.460;2023-02-01T01:22:13;3.08;;;2.30;;
65863;SDS011;52639;51.180;20.460;2023-02-01T01:26:18;2.65;;;1.85;;
65863;SDS011;52639;51.180;20.460;2023-02-01T01:30:23;2.25;;;1.77;;
65863;SDS011;52639;51.180;20.460;2023-02-01T01:34:29;2.85;;;2.10;;
65863;SDS011;52639;51.180;20.460;2023-02-01T01:38:32;1.13;;;1.13;;
65863;SDS011;52639;51.180;20.460;2023-02-01T01:42:38;4.80;;;2.03;;
65863;SDS011;52639;51.180;20.460;2023-02-01T01:46:42;4.07;;;2.00;;
65863;SDS011;52639;51.180;20.460;2023-02-01T01:50:45;7.18;;;2.10;;
65863;SDS011;52639;51.180;20.460;2023-02-01T01:54:52;8.98;;;2.30;;
65863;SDS011;52639;51.180;20.460;2023-02-01T01:58:57;6.38;;;2.15;;
65863;SDS011;52639;51.180;20.460;2023-02-01T02:03:07;4.95;;;1.77;;
65863;SDS011;52639;51.180;20.460;2023-02-01T02:07:17;6.53;;;2.42;;
65863;SDS011;52639;51.180;20.460;2023-02-01T02:11:24;4.43;;;2.10;;
65863;SDS011;52639;51.180;20.460;2023-02-01T02:15:29;4.40;;;2.08;;
65863;SDS011;52639;51.180;20.460;2023-02-01T02:19:47;3.30;;;1.75;;
65863;SDS011;52639;51.180;20.460;2023-02-01T02:24:27;3.65;;;2.00;;
65863;SDS011;52639;51.180;20.460;2023-02-01T02:29:11;6.63;;;2.20;;
65863;SDS011;52639;51.180;20.460;2023-02-01T02:33:54;6.18;;;1.63;;
65863;SDS011;52639;51.180;20.460;2023-02-01T02:38:10;7.90;;;2.45;;
65863;SDS011;52639;51.180;20.460;2023-02-01T02:42:20;9.27;;;2.42;;
65863;SDS011;52639;51.180;20.460;2023-02-01T02:46:48;3.25;;;1.95;;
65863;SDS011;52639;51.180;20.460;2023-02-01T02:51:12;8.65;;;2.50;;
65863;SDS011;52639;51.180;20.460;2023-02-01T02:55:34;1.45;;;1.23;;
65863;SDS011;52639;51.180;20.460;2023-02-01T02:59:41;5.13;;;1.92;;
65863;SDS011;52639;51.180;20.460;2023-02-01T03:04:04;5.15;;;2.00;;
65863;SDS011;52639;51.180;20.460;2023-02-01T03:08:12;4.80;;;1.77;;
65863;SDS011;52639;51.180;20.460;2023-02-01T03:12:17;3.75;;;1.80;;
65863;SDS011;52639;51.180;20.460;2023-02-01T03:16:39;6.85;;;2.30;;
65863;SDS011;52639;51.180;20.460;2023-02-01T03:20:48;8.15;;;2.42;;
65863;SDS011;52639;51.180;20.460;2023-02-01T03:24:56;1.95;;;1.52;;
65863;SDS011;52639;51.180;20.460;2023-02-01T03:29:05;11.10;;;2.53;;
65863;SDS011;52639;51.180;20.460;2023-02-01T03:33:14;6.50;;;1.88;;
65863;SDS011;52639;51.180;20.460;2023-02-01T03:37:26;4.00;;;1.83;;
65863;SDS011;52639;51.180;20.460;2023-02-01T03:41:34;11.65;;;4.03;;
65863;SDS011;52639;51.180;20.460;2023-02-01T03:49:49;7.97;;;2.45;;
65863;SDS011;52639;51.180;20.460;2023-02-01T03:53:55;13.10;;;3.20;;
65863;SDS011;52639;51.180;20.460;2023-02-01T03:58:02;13.00;;;3.55;;
65863;SDS011;52639;51.180;20.460;2023-02-01T04:02:10;9.15;;;2.92;;
65863;SDS011;52639;51.180;20.460;2023-02-01T04:06:13;15.20;;;5.38;;
65863;SDS011;52639;51.180;20.460;2023-02-01T04:10:17;6.55;;;3.92;;
65863;SDS011;52639;51.180;20.460;2023-02-01T04:14:21;12.90;;;3.70;;
65863;SDS011;52639;51.180;20.460;2023-02-01T04:18:24;14.27;;;3.00;;
65863;SDS011;52639;51.180;20.460;2023-02-01T04:22:27;7.55;;;3.08;;
65863;SDS011;52639;51.180;20.460;2023-02-01T04:26:30;10.60;;;2.45;;
65863;SDS011;52639;51.180;20.460;2023-02-01T04:30:44;7.75;;;2.60;;
65863;SDS011;52639;51.180;20.460;2023-02-01T04:34:48;4.53;;;2.33;;
65863;SDS011;52639;51.180;20.460;2023-02-01T04:38:51;9.75;;;3.03;;
65863;SDS011;52639;51.180;20.460;2023-02-01T04:42:54;11.20;;;2.88;;
65863;SDS011;52639;51.180;20.460;2023-02-01T04:46:59;11.07;;;3.28;;
65863;SDS011;52639;51.180;20.460;2023-02-01T04:51:02;10.00;;;2.72;;
65863;SDS011;52639;51.180;20.460;2023-02-01T04:55:06;11.95;;;3.60;;
65863;SDS011;52639;51.180;20.460;2023-02-01T04:59:10;12.98;;;3.60;;
65863;SDS011;52639;51.180;20.460;2023-02-01T05:03:15;13.32;;;3.90;;
65863;SDS011;52639;51.180;20.460;2023-02-01T05:07:18;8.15;;;3.17;;
65863;SDS011;52639;51.180;20.460;2023-02-01T05:11:21;16.60;;;3.38;;
65863;SDS011;52639;51.180;20.460;2023-02-01T05:15:41;6.07;;;2.58;;
65863;SDS011;52639;51.180;20.460;2023-02-01T05:19:46;9.57;;;2.90;;
65863;SDS011;52639;51.180;20.460;2023-02-01T05:23:49;11.75;;;3.33;;
65863;SDS011;52639;51.180;20.460;2023-02-01T05:28:09;8.95;;;2.13;;
65863;SDS011;52639;51.180;20.460;2023-02-01T05:32:12;9.57;;;3.47;;
65863;SDS011;52639;51.180;20.460;2023-02-01T05:36:17;5.32;;;2.30;;
65863;SDS011;52639;51.180;20.460;2023-02-01T05:40:20;14.25;;;3.75;;
65863;SDS011;52639;51.180;20.460;2023-02-01T05:44:23;10.20;;;3.10;;
65863;SDS011;52639;51.180;20.460;2023-02-01T05:48:26;22.73;;;3.60;;
65863;SDS011;52639;51.180;20.460;2023-02-01T05:52:30;15.40;;;3.35;;
65863;SDS011;52639;51.180;20.460;2023-02-01T05:56:34;9.60;;;2.88;;
65863;SDS011;52639;51.180;20.460;2023-02-01T06:00:37;13.13;;;2.67;;
65863;SDS011;52639;51.180;20.460;2023-02-01T06:04:40;14.25;;;3.58;;
65863;SDS011;52639;51.180;20.460;2023-02-01T06:08:45;13.07;;;5.25;;
65863;SDS011;52639;51.180;20.460;2023-02-01T06:12:48;12.30;;;3.80;;
65863;SDS011;52639;51.180;20.460;2023-02-01T06:16:51;9.40;;;3.40;;
65863;SDS011;52639;51.180;20.460;2023-02-01T06:20:54;15.77;;;5.40;;
65863;SDS011;52639;51.180;20.460;2023-02-01T06:25:00;12.48;;;4.50;;
65863;SDS011;52639;51.180;20.460;2023-02-01T06:29:03;17.83;;;5.78;;
65863;SDS011;52639;51.180;20.460;2023-02-01T06:33:07;13.95;;;4.05;;
65863;SDS011;52639;51.180;20.460;2023-02-01T06:37:10;9.48;;;4.00;;
65863;SDS011;52639;51.180;20.460;2023-02-01T06:41:15;14.10;;;5.05;;
65863;SDS011;52639;51.180;20.460;2023-02-01T06:45:18;11.48;;;3.83;;
65863;SDS011;52639;51.180;20.460;2023-02-01T06:49:21;23.38;;;7.63;;
65863;SDS011;52639;51.180;20.460;2023-02-01T06:53:24;21.85;;;6.40;;
65863;SDS011;52639;51.180;20.460;2023-02-01T06:57:30;28.92;;;10.57;;
65863;SDS011;52639;51.180;20.460;2023-02-01T07:01:35;31.17;;;12.23;;
65863;SDS011;52639;51.180;20.460;2023-02-01T07:05:38;16.63;;;9.27;;
65863;SDS011;52639;51.180;20.460;2023-02-01T07:09:41;21.05;;;8.07;;
65863;SDS011;52639;51.180;20.460;2023-02-01T07:13:47;18.02;;;7.22;;
65863;SDS011;52639;51.180;20.460;2023-02-01T07:17:50;15.02;;;6.53;;
65863;SDS011;52639;51.180;20.460;2023-02-01T07:21:53;18.00;;;6.50;;
65863;SDS011;52639;51.180;20.460;2023-02-01T07:26:03;20.77;;;7.95;;
65863;SDS011;52639;51.180;20.460;2023-02-01T07:30:11;19.60;;;5.60;;
65863;SDS011;52639;51.180;20.460;2023-02-01T07:34:14;21.40;;;7.97;;
65863;SDS011;52639;51.180;20.460;2023-02-01T07:38:17;20.17;;;8.77;;
65863;SDS011;52639;51.180;20.460;2023-02-01T07:42:22;17.17;;;5.35;;
65863;SDS011;52639;51.180;20.460;2023-02-01T07:46:37;18.23;;;6.32;;
65863;SDS011;52639;51.180;20.460;2023-02-01T07:50:44;15.93;;;5.13;;
65863;SDS011;52639;51.180;20.460;2023-02-01T07:54:47;15.27;;;4.28;;
65863;SDS011;52639;51.180;20.460;2023-02-01T07:58:51;11.85;;;4.90;;
65863;SDS011;52639;51.180;20.460;2023-02-01T08:03:00;21.08;;;4.40;;
65863;SDS011;52639;51.180;20.460;2023-02-01T08:07:06;19.38;;;4.88;;
65863;SDS011;52639;51.180;20.460;2023-02-01T08:11:09;14.02;;;5.63;;
65863;SDS011;52639;51.180;20.460;2023-02-01T08:15:12;15.68;;;4.97;;
65863;SDS011;52639;51.180;20.460;2023-02-01T08:19:17;15.07;;;4.57;;
65863;SDS011;52639;51.180;20.460;2023-02-01T08:23:20;18.30;;;5.22;;
65863;SDS011;52639;51.180;20.460;2023-02-01T08:27:23;11.77;;;3.60;;
65863;SDS011;52639;51.180;20.460;2023-02-01T08:31:28;13.93;;;4.35;;
65863;SDS011;52639;51.180;20.460;2023-02-01T08:35:34;12.82;;;4.85;;
65863;SDS011;52639;51.180;20.460;2023-02-01T08:39:37;17.40;;;5.38;;
65863;SDS011;52639;51.180;20.460;2023-02-01T08:43:41;15.52;;;5.15;;
65863;SDS011;52639;51.180;20.460;2023-02-01T08:47:45;16.77;;;4.50;;
65863;SDS011;52639;51.180;20.460;2023-02-01T08:51:50;16.92;;;5.60;;
65863;SDS011;52639;51.180;20.460;2023-02-01T08:55:53;26.27;;;7.25;;
65863;SDS011;52639;51.180;20.460;2023-02-01T08:59:56;12.85;;;5.82;;
65863;SDS011;52639;51.180;20.460;2023-02-01T09:04:00;12.63;;;4.50;;
65863;SDS011;52639;51.180;20.460;2023-02-01T09:08:07;16.73;;;7.28;;
65863;SDS011;52639;51.180;20.460;2023-02-01T09:12:17;24.55;;;6.75;;
65863;SDS011;52639;51.180;20.460;2023-02-01T09:16:20;21.45;;;6.45;;
65863;SDS011;52639;51.180;20.460;2023-02-01T09:20:23;22.80;;;7.32;;
65863;SDS011;52639;51.180;20.460;2023-02-01T09:24:31;28.73;;;8.80;;
65863;SDS011;52639;51.180;20.460;2023-02-01T09:28:34;31.20;;;9.73;;
65863;SDS011;52639;51.180;20.460;2023-02-01T09:32:37;16.88;;;6.07;;
65863;SDS011;52639;51.180;20.460;2023-02-01T09:36:40;17.00;;;6.10;;
65863;SDS011;52639;51.180;20.460;2023-02-01T09:40:46;17.75;;;6.43;;
65863;SDS011;52639;51.180;20.460;2023-02-01T09:49:18;20.63;;;6.50;;
65863;SDS011;52639;51.180;20.460;2023-02-01T09:53:27;21.73;;;7.70;;
65863;SDS011;52639;51.180;20.460;2023-02-01T09:57:45;18.08;;;6.57;;
65863;SDS011;52639;51.180;20.460;2023-02-01T10:01:56;18.95;;;5.65;;
65863;SDS011;52639;51.180;20.460;2023-02-01T10:06:04;17.08;;;5.68;;
65863;SDS011;52639;51.180;20.460;2023-02-01T10:10:21;9.73;;;4.82;;
65863;SDS011;52639;51.180;20.460;2023-02-01T10:14:41;16.02;;;5.00;;
65863;SDS011;52639;51.180;20.460;2023-02-01T10:18:59;16.58;;;5.13;;
65863;SDS011;52639;51.180;20.460;2023-02-01T10:23:22;11.23;;;4.68;;
65863;SDS011;52639;51.180;20.460;2023-02-01T10:27:49;10.07;;;3.90;;
65863;SDS011;52639;51.180;20.460;2023-02-01T10:31:53;12.70;;;4.78;;
65863;SDS011;52639;51.180;20.460;2023-02-01T10:35:59;9.48;;;4.25;;
65863;SDS011;52639;51.180;20.460;2023-02-01T10:40:12;11.82;;;4.15;;
65863;SDS011;52639;51.180;20.460;2023-02-01T10:44:22;29.60;;;10.13;;
65863;SDS011;52639;51.180;20.460;2023-02-01T10:48:29;16.83;;;7.50;;
65863;SDS011;52639;51.180;20.460;2023-02-01T10:52:36;18.40;;;7.28;;
65863;SDS011;52639;51.180;20.460;2023-02-01T10:56:44;19.83;;;6.78;;
65863;SDS011;52639;51.180;20.460;2023-02-01T11:00:48;13.77;;;7.03;;
65863;SDS011;52639;51.180;20.460;2023-02-01T11:05:03;11.80;;;4.70;;
65863;SDS011;52639;51.180;20.460;2023-02-01T11:09:10;16.55;;;8.27;;
65863;SDS011;52639;51.180;20.460;2023-02-01T11:13:21;13.63;;;4.53;;
65863;SDS011;52639;51.180;20.460;2023-02-01T11:17:33;20.73;;;10.27;;
65863;SDS011;52639;51.180;20.460;2023-02-01T11:21:38;28.38;;;11.80;;
65863;SDS011;52639;51.180;20.460;2023-02-01T11:25:49;18.67;;;7.88;;
65863;SDS011;52639;51.180;20.460;2023-02-01T11:29:55;10.43;;;4.50;;
65863;SDS011;52639;51.180;20.460;2023-02-01T11:34:04;27.33;;;13.68;;
65863;SDS011;52639;51.180;20.460;2023-02-01T11:38:18;25.05;;;11.68;;
65863;SDS011;52639;51.180;20.460;2023-02-01T11:42:24;19.50;;;10.05;;
65863;SDS011;52639;51.180;20.460;2023-02-01T11:46:29;16.40;;;7.97;;
65863;SDS011;52639;51.180;20.460;2023-02-01T11:50:35;22.65;;;10.93;;
65863;SDS011;52639;51.180;20.460;2023-02-01T11:54:52;20.85;;;9.63;;
65863;SDS011;52639;51.180;20.460;2023-02-01T11:59:20;21.40;;;10.30;;
65863;SDS011;52639;51.180;20.460;2023-02-01T12:08:26;21.25;;;10.18;;
65863;SDS011;52639;51.180;20.460;2023-02-01T12:12:51;38.83;;;16.52;;
65863;SDS011;52639;51.180;20.460;2023-02-01T12:17:15;31.42;;;14.77;;
65863;SDS011;52639;51.180;20.460;2023-02-01T12:21:39;28.38;;;15.52;;
65863;SDS011;52639;51.180;20.460;2023-02-01T12:25:57;35.63;;;14.35;;
65863;SDS011;52639;51.180;20.460;2023-02-01T12:30:16;31.95;;;12.40;;
65863;SDS011;52639;51.180;20.460;2023-02-01T12:35:00;26.00;;;12.68;;
65863;SDS011;52639;51.180;20.460;2023-02-01T12:39:22;33.70;;;14.45;;
65863;SDS011;52639;51.180;20.460;2023-02-01T12:43:32;44.85;;;22.70;;
65863;SDS011;52639;51.180;20.460;2023-02-01T12:47:44;23.50;;;11.02;;
65863;SDS011;52639;51.180;20.460;2023-02-01T12:51:54;33.90;;;12.63;;
65863;SDS011;52639;51.180;20.460;2023-02-01T12:56:02;28.27;;;9.35;;
65863;SDS011;52639;51.180;20.460;2023-02-01T13:04:30;13.93;;;6.00;;
65863;SDS011;52639;51.180;20.460;2023-02-01T13:12:44;31.88;;;13.43;;
65863;SDS011;52639;51.180;20.460;2023-02-01T13:16:52;24.65;;;9.73;;
65863;SDS011;52639;51.180;20.460;2023-02-01T13:21:02;18.92;;;7.88;;
65863;SDS011;52639;51.180;20.460;2023-02-01T13:25:11;9.88;;;4.35;;
65863;SDS011;52639;51.180;20.460;2023-02-01T13:29:15;20.25;;;7.47;;
65863;SDS011;52639;51.180;20.460;2023-02-01T13:33:28;18.20;;;8.07;;
65863;SDS011;52639;51.180;20.460;2023-02-01T13:37:54;13.68;;;6.20;;
65863;SDS011;52639;51.180;20.460;2023-02-01T13:42:15;13.25;;;6.93;;
65863;SDS011;52639;51.180;20.460;2023-02-01T13:46:21;17.83;;;7.32;;
65863;SDS011;52639;51.180;20.460;2023-02-01T13:50:25;17.50;;;6.95;;
65863;SDS011;52639;51.180;20.460;2023-02-01T13:54:33;10.10;;;5.32;;
65863;SDS011;52639;51.180;20.460;2023-02-01T13:58:40;13.02;;;6.10;;
65863;SDS011;52639;51.180;20.460;2023-02-01T14:02:49;9.30;;;4.85;;
65863;SDS011;52639;51.180;20.460;2023-02-01T14:07:14;10.98;;;6.43;;
65863;SDS011;52639;51.180;20.460;2023-02-01T14:24:54;15.98;;;8.23;;
65863;SDS011;52639;51.180;20.460;2023-02-01T14:29:02;15.23;;;6.80;;
65863;SDS011;52639;51.180;20.460;2023-02-01T14:33:24;15.77;;;7.10;;
65863;SDS011;52639;51.180;20.460;2023-02-01T14:37:31;12.00;;;5.35;;
65863;SDS011;52639;51.180;20.460;2023-02-01T14:41:37;14.23;;;6.70;;
65863;SDS011;52639;51.180;20.460;2023-02-01T14:45:50;11.90;;;6.47;;
65863;SDS011;52639;51.180;20.460;2023-02-01T14:49:55;19.02;;;9.18;;
65863;SDS011;52639;51.180;20.460;2023-02-01T14:54:02;19.10;;;9.25;;
65863;SDS011;52639;51.180;20.460;2023-02-01T14:58:05;14.70;;;7.20;;
65863;SDS011;52639;51.180;20.460;2023-02-01T15:02:23;18.90;;;6.93;;
65863;SDS011;52639;51.180;20.460;2023-02-01T15:06:32;11.73;;;4.70;;
65863;SDS011;52639;51.180;20.460;2023-02-01T15:10:44;15.20;;;7.68;;
65863;SDS011;52639;51.180;20.460;2023-02-01T15:15:03;18.40;;;8.55;;
65863;SDS011;52639;51.180;20.460;2023-02-01T15:19:14;15.50;;;7.03;;
65863;SDS011;52639;51.180;20.460;2023-02-01T15:23:17;17.45;;;9.45;;
65863;SDS011;52639;51.180;20.460;2023-02-01T15:27:20;15.93;;;8.10;;
65863;SDS011;52639;51.180;20.460;2023-02-01T15:31:34;12.60;;;6.30;;
65863;SDS011;52639;51.180;20.460;2023-02-01T15:35:41;23.38;;;10.85;;
65863;SDS011;52639;51.180;20.460;2023-02-01T15:40:03;20.13;;;10.30;;
65863;SDS011;52639;51.180;20.460;2023-02-01T15:44:30;20.33;;;12.10;;
65863;SDS011;52639;51.180;20.460;2023-02-01T15:48:37;20.15;;;11.23;;
65863;SDS011;52639;51.180;20.460;2023-02-01T15:52:46;24.15;;;10.95;;
65863;SDS011;52639;51.180;20.460;2023-02-01T15:56:51;18.65;;;9.93;;
65863;SDS011;52639;51.180;20.460;2023-02-01T16:00:56;26.67;;;10.93;;
65863;SDS011;52639;51.180;20.460;2023-02-01T16:05:02;15.82;;;8.65;;
65863;SDS011;52639;51.180;20.460;2023-02-01T16:09:10;23.88;;;12.02;;
65863;SDS011;52639;51.180;20.460;2023-02-01T16:13:15;21.58;;;8.50;;
65863;SDS011;52639;51.180;20.460;2023-02-01T16:17:20;16.30;;;7.25;;
65863;SDS011;52639;51.180;20.460;2023-02-01T16:21:24;15.23;;;7.40;;
65863;SDS011;52639;51.180;20.460;2023-02-01T16:25:29;13.52;;;5.70;;
65863;SDS011;52639;51.180;20.460;2023-02-01T16:29:33;13.20;;;7.93;;
65863;SDS011;52639;51.180;20.460;2023-02-01T16:33:36;13.82;;;7.57;;
65863;SDS011;52639;51.180;20.460;2023-02-01T16:37:41;12.45;;;7.50;;
65863;SDS011;52639;51.180;20.460;2023-02-01T16:41:46;14.30;;;6.68;;
65863;SDS011;52639;51.180;20.460;2023-02-01T16:45:51;12.05;;;6.80;;
65863;SDS011;52639;51.180;20.460;2023-02-01T16:49:56;12.23;;;5.82;;
65863;SDS011;52639;51.180;20.460;2023-02-01T16:54:00;13.90;;;8.23;;
65863;SDS011;52639;51.180;20.460;2023-02-01T16:58:07;8.90;;;4.97;;
65863;SDS011;52639;51.180;20.460;2023-02-01T17:02:12;11.38;;;7.35;;
65863;SDS011;52639;51.180;20.460;2023-02-01T17:06:20;15.50;;;7.25;;
65863;SDS011;52639;51.180;20.460;2023-02-01T17:10:26;11.68;;;6.57;;
65863;SDS011;52639;51.180;20.460;2023-02-01T17:14:35;14.55;;;6.70;;
65863;SDS011;52639;51.180;20.460;2023-02-01T17:18:45;16.65;;;8.48;;
65863;SDS011;52639;51.180;20.460;2023-02-01T17:22:57;17.63;;;6.57;;
65863;SDS011;52639;51.180;20.460;2023-02-01T17:27:02;16.35;;;7.75;;
65863;SDS011;52639;51.180;20.460;2023-02-01T17:31:11;12.10;;;6.07;;
65863;SDS011;52639;51.180;20.460;2023-02-01T17:35:18;17.35;;;8.77;;
65863;SDS011;52639;51.180;20.460;2023-02-01T17:39:22;19.25;;;8.20;;
65863;SDS011;52639;51.180;20.460;2023-02-01T17:43:45;13.60;;;6.18;;
65863;SDS011;52639;51.180;20.460;2023-02-01T17:47:51;16.75;;;6.93;;
65863;SDS011;52639;51.180;20.460;2023-02-01T17:51:56;19.85;;;9.85;;
65863;SDS011;52639;51.180;20.460;2023-02-01T17:56:01;13.85;;;6.47;;
65863;SDS011;52639;51.180;20.460;2023-02-01T18:00:06;16.45;;;8.40;;
65863;SDS011;52639;51.180;20.460;2023-02-01T18:04:16;19.90;;;9.55;;
65863;SDS011;52639;51.180;20.460;2023-02-01T18:08:23;7.72;;;4.10;;
65863;SDS011;52639;51.180;20.460;2023-02-01T18:12:28;17.23;;;8.05;;
65863;SDS011;52639;51.180;20.460;2023-02-01T18:16:34;22.70;;;10.63;;
65863;SDS011;52639;51.180;20.460;2023-02-01T18:20:41;23.67;;;11.05;;
65863;SDS011;52639;51.180;20.460;2023-02-01T18:24:55;21.50;;;9.23;;
65863;SDS011;52639;51.180;20.460;2023-02-01T18:29:00;20.27;;;7.95;;
65863;SDS011;52639;51.180;20.460;2023-02-01T18:33:07;24.85;;;8.70;;
65863;SDS011;52639;51.180;20.460;2023-02-01T18:37:15;18.55;;;8.02;;
65863;SDS011;52639;51.180;20.460;2023-02-01T18:41:21;18.60;;;8.70;;
65863;SDS011;52639;51.180;20.460;2023-02-01T18:45:29;16.65;;;8.13;;
65863;SDS011;52639;51.180;20.460;2023-02-01T18:49:35;20.08;;;9.85;;
65863;SDS011;52639;51.180;20.460;2023-02-01T18:53:42;16.67;;;7.75;;
65863;SDS011;52639;51.180;20.460;2023-02-01T18:57:46;21.70;;;9.38;;
65863;SDS011;52639;51.180;20.460;2023-02-01T19:01:56;16.00;;;7.45;;
65863;SDS011;52639;51.180;20.460;2023-02-01T19:06:02;19.90;;;8.50;;
65863;SDS011;52639;51.180;20.460;2023-02-01T19:10:12;20.75;;;8.82;;
65863;SDS011;52639;51.180;20.460;2023-02-01T19:14:19;15.57;;;8.52;;
65863;SDS011;52639;51.180;20.460;2023-02-01T19:18:25;8.18;;;4.07;;
65863;SDS011;52639;51.180;20.460;2023-02-01T19:22:29;12.77;;;4.50;;
65863;SDS011;52639;51.180;20.460;2023-02-01T19:26:38;7.57;;;3.38;;
65863;SDS011;52639;51.180;20.460;2023-02-01T19:30:46;11.00;;;3.40;;
65863;SDS011;52639;51.180;20.460;2023-02-01T19:34:53;9.65;;;4.10;;
65863;SDS011;52639;51.180;20.460;2023-02-01T19:38:58;15.73;;;6.07;;
65863;SDS011;52639;51.180;20.460;2023-02-01T19:43:04;19.45;;;9.30;;
65863;SDS011;52639;51.180;20.460;2023-02-01T19:47:15;12.82;;;6.55;;
65863;SDS011;52639;51.180;20.460;2023-02-01T19:51:22;14.85;;;6.43;;
65863;SDS011;52639;51.180;20.460;2023-02-01T19:55:27;22.10;;;9.02;;
65863;SDS011;52639;51.180;20.460;2023-02-01T19:59:38;16.30;;;7.13;;
65863;SDS011;52639;51.180;20.460;2023-02-01T20:03:44;19.13;;;8.00;;
65863;SDS011;52639;51.180;20.460;2023-02-01T20:07:52;20.67;;;10.00;;
65863;SDS011;52639;51.180;20.460;2023-02-01T20:11:59;20.23;;;10.55;;
65863;SDS011;52639;51.180;20.460;2023-02-01T20:16:06;19.70;;;9.23;;
65863;SDS011;52639;51.180;20.460;2023-02-01T20:20:12;19.10;;;7.75;;
65863;SDS011;52639;51.180;20.460;2023-02-01T20:24:17;28.73;;;10.38;;
65863;SDS011;52639;51.180;20.460;2023-02-01T20:28:25;24.38;;;13.18;;
65863;SDS011;52639;51.180;20.460;2023-02-01T20:32:40;18.83;;;10.18;;
65863;SDS011;52639;51.180;20.460;2023-02-01T20:36:48;22.13;;;10.23;;
65863;SDS011;52639;51.180;20.460;2023-02-01T20:40:52;31.55;;;11.82;;
65863;SDS011;52639;51.180;20.460;2023-02-01T20:45:05;20.02;;;9.05;;
65863;SDS011;52639;51.180;20.460;2023-02-01T20:49:12;23.23;;;8.95;;
65863;SDS011;52639;51.180;20.460;2023-02-01T20:53:16;19.58;;;9.70;;
65863;SDS011;52639;51.180;20.460;2023-02-01T20:57:22;29.13;;;11.02;;
65863;SDS011;52639;51.180;20.460;2023-02-01T21:01:27;30.45;;;12.32;;
65863;SDS011;52639;51.180;20.460;2023-02-01T21:05:34;22.20;;;10.40;;
65863;SDS011;52639;51.180;20.460;2023-02-01T21:09:44;27.58;;;9.27;;
65863;SDS011;52639;51.180;20.460;2023-02-01T21:13:52;15.50;;;7.57;;
65863;SDS011;52639;51.180;20.460;2023-02-01T21:17:58;17.30;;;7.78;;
65863;SDS011;52639;51.180;20.460;2023-02-01T21:22:14;21.67;;;8.00;;
65863;SDS011;52639;51.180;20.460;2023-02-01T21:26:20;16.92;;;7.95;;
65863;SDS011;52639;51.180;20.460;2023-02-01T21:30:27;13.27;;;5.60;;
65863;SDS011;52639;51.180;20.460;2023-02-01T21:34:32;15.90;;;6.68;;
65863;SDS011;52639;51.180;20.460;2023-02-01T21:38:37;12.45;;;6.65;;
65863;SDS011;52639;51.180;20.460;2023-02-01T21:42:41;9.70;;;4.85;;
65863;SDS011;52639;51.180;20.460;2023-02-01T21:46:45;11.48;;;5.30;;
65863;SDS011;52639;51.180;20.460;2023-02-01T21:50:48;14.55;;;6.82;;
65863;SDS011;52639;51.180;20.460;2023-02-01T21:54:53;11.25;;;5.07;;
65863;SDS011;52639;51.180;20.460;2023-02-01T21:58:59;11.38;;;6.15;;
65863;SDS011;52639;51.180;20.460;2023-02-01T22:03:02;14.30;;;6.05;;
65863;SDS011;52639;51.180;20.460;2023-02-01T22:07:05;7.90;;;3.28;;
65863;SDS011;52639;51.180;20.460;2023-02-01T22:11:10;10.25;;;5.60;;
65863;SDS011;52639;51.180;20.460;2023-02-01T22:15:13;12.45;;;5.65;;
65863;SDS011;52639;51.180;20.460;2023-02-01T22:19:16;9.73;;;4.93;;
65863;SDS011;52639;51.180;20.460;2023-02-01T22:23:19;12.60;;;5.95;;
65863;SDS011;52639;51.180;20.460;2023-02-01T22:27:25;13.93;;;6.18;;
65863;SDS011;52639;51.180;20.460;2023-02-01T22:31:28;12.05;;;5.80;;
65863;SDS011;52639;51.180;20.460;2023-02-01T22:35:31;22.40;;;7.40;;
65863;SDS011;52639;51.180;20.460;2023-02-01T22:39:34;15.05;;;7.32;;
65863;SDS011;52639;51.180;20.460;2023-02-01T22:43:37;12.00;;;6.20;;
65863;SDS011;52639;51.180;20.460;2023-02-01T22:47:41;17.23;;;6.45;;
65863;SDS011;52639;51.180;20.460;2023-02-01T22:51:44;13.88;;;4.78;;
65863;SDS011;52639;51.180;20.460;2023-02-01T22:55:48;14.82;;;6.43;;
65863;SDS011;52639;51.180;20.460;2023-02-01T22:59:53;12.48;;;6.25;;
65863;SDS011;52639;51.180;20.460;2023-02-01T23:03:56;24.40;;;10.30;;
65863;SDS011;52639;51.180;20.460;2023-02-01T23:08:00;16.95;;;6.32;;
65863;SDS011;52639;51.180;20.460;2023-02-01T23:12:03;9.85;;;5.60;;
65863;SDS011;52639;51.180;20.460;2023-02-01T23:16:10;11.25;;;6.40;;
65863;SDS011;52639;51.180;20.460;2023-02-01T23:20:14;13.15;;;6.15;;
65863;SDS011;52639;51.180;20.460;2023-02-01T23:24:19;10.73;;;5.00;;
65863;SDS011;52639;51.180;20.460;2023-02-01T23:28:22;12.60;;;6.38;;
65863;SDS011;52639;51.180;20.460;2023-02-01T23:32:26;12.10;;;5.60;;
65863;SDS011;52639;51.180;20.460;2023-02-01T23:36:29;13.43;;;6.03;;
65863;SDS011;52639;51.180;20.460;2023-02-01T23:40:32;10.85;;;6.07;;
65863;SDS011;52639;51.180;20.460;2023-02-01T23:44:35;10.95;;;5.88;;
65863;SDS011;52639;51.180;20.460;2023-02-01T23:48:40;10.43;;;5.10;;
65863;SDS011;52639;51.180;20.460;2023-02-01T23:52:43;14.93;;;6.13;;
65863;SDS011;52639;51.180;20.460;2023-02-01T23:56:46;9.82;;;4.93;;
